createdAt,value
2022-12-11T00:00:55.540Z,14.60
2022-12-11T00:03:24.392Z,13.33
2022-12-11T00:05:52.783Z,11.43
2022-12-11T00:08:22.933Z,12.50
2022-12-11T00:10:53.212Z,12.83
2022-12-11T00:13:21.792Z,12.00
2022-12-11T00:15:50.377Z,9.27
2022-12-11T00:18:18.958Z,13.83
2022-12-11T00:20:49.481Z,12.90
2022-12-11T00:23:18.174Z,12.97
2022-12-11T00:25:50.753Z,12.50
2022-12-11T00:28:20.613Z,12.23
2022-12-11T00:30:49.372Z,11.20
2022-12-11T00:33:18.363Z,12.80
2022-12-11T00:35:48.792Z,10.77
2022-12-11T00:38:21.881Z,4.63
2022-12-11T00:40:55.354Z,10.13
2022-12-11T00:43:24.246Z,10.23
2022-12-11T00:45:52.791Z,10.10
2022-12-11T00:48:21.945Z,10.00
2022-12-11T00:50:52.068Z,13.53
2022-12-11T00:53:22.165Z,9.73
2022-12-11T00:55:52.588Z,11.67
2022-12-11T00:58:21.029Z,10.47
2022-12-11T01:00:50.779Z,11.13
2022-12-11T01:03:20.311Z,8.20
2022-12-11T01:06:04.160Z,10.80
2022-12-11T01:08:38.300Z,11.27
2022-12-11T01:11:11.020Z,10.50
2022-12-11T01:13:42.974Z,10.90
2022-12-11T01:16:17.042Z,11.00
2022-12-11T01:18:45.814Z,11.20
2022-12-11T01:21:16.557Z,10.17
2022-12-11T01:23:48.315Z,11.53
2022-12-11T01:26:19.090Z,11.13
2022-12-11T01:28:51.086Z,10.33
2022-12-11T01:31:21.051Z,9.80
2022-12-11T01:33:52.279Z,11.50
2022-12-11T01:36:22.768Z,10.53
2022-12-11T01:38:51.972Z,11.13
2022-12-11T01:41:23.326Z,10.03
2022-12-11T01:44:00.618Z,11.03
2022-12-11T01:46:30.876Z,10.57
2022-12-11T01:49:00.471Z,10.80
2022-12-11T01:51:32.879Z,10.50
2022-12-11T01:54:05.422Z,9.67
2022-12-11T01:56:38.682Z,10.70
2022-12-11T01:59:09.841Z,9.87
2022-12-11T02:01:43.588Z,8.50
2022-12-11T02:04:17.258Z,10.57
2022-12-11T02:06:49.074Z,9.73
2022-12-11T02:09:21.368Z,8.60
2022-12-11T02:11:57.499Z,11.17
2022-12-11T02:14:34.733Z,10.53
2022-12-11T02:17:07.286Z,10.17
2022-12-11T02:19:59.936Z,9.60
2022-12-11T02:22:44.393Z,10.60
2022-12-11T02:25:22.529Z,9.70
2022-12-11T02:27:59.175Z,11.20
2022-12-11T02:30:30.232Z,10.13
2022-12-11T02:33:00.232Z,11.87
2022-12-11T02:35:34.999Z,10.27
2022-12-11T02:38:06.888Z,11.60
2022-12-11T02:40:38.616Z,13.03
2022-12-11T02:43:11.501Z,12.80
2022-12-11T02:45:43.059Z,12.17
2022-12-11T02:48:14.400Z,10.83
2022-12-11T02:50:47.358Z,12.20
2022-12-11T02:53:20.435Z,10.77
2022-12-11T02:55:54.310Z,10.80
2022-12-11T02:58:28.427Z,10.90
2022-12-11T03:00:58.621Z,10.77
2022-12-11T03:03:27.837Z,10.10
2022-12-11T03:05:57.490Z,10.70
2022-12-11T03:08:28.059Z,11.80
2022-12-11T03:10:58.351Z,10.67
2022-12-11T03:13:27.668Z,11.70
2022-12-11T03:16:11.422Z,10.90
2022-12-11T03:18:46.445Z,10.83
2022-12-11T03:21:21.084Z,11.03
2022-12-11T03:23:53.793Z,11.80
2022-12-11T03:26:25.067Z,12.90
2022-12-11T03:28:59.238Z,11.97
2022-12-11T03:31:38.279Z,13.67
2022-12-11T03:34:13.748Z,13.70
2022-12-11T03:36:45.839Z,12.00
2022-12-11T03:39:20.359Z,13.90
2022-12-11T03:41:51.755Z,13.20
2022-12-11T03:44:22.184Z,12.30
2022-12-11T03:46:55.238Z,12.80
2022-12-11T03:49:29.404Z,9.10
2022-12-11T03:51:59.486Z,11.97
2022-12-11T03:54:28.865Z,11.70
2022-12-11T03:57:00.827Z,12.27
2022-12-11T03:59:29.705Z,13.10
2022-12-11T04:02:00.409Z,10.93
2022-12-11T04:04:29.065Z,10.33
2022-12-11T04:06:59.584Z,10.30
2022-12-11T04:09:28.207Z,9.73
2022-12-11T04:12:04.707Z,10.93
2022-12-11T04:14:53.605Z,11.27
2022-12-11T04:17:37.713Z,10.40
2022-12-11T04:20:27.399Z,9.60
2022-12-11T04:23:16.059Z,10.23
2022-12-11T04:25:46.271Z,7.70
2022-12-11T04:28:16.104Z,9.33
2022-12-11T04:30:51.799Z,10.50
2022-12-11T04:33:21.814Z,10.80
2022-12-11T04:35:50.338Z,10.43
2022-12-11T04:38:19.260Z,10.60
2022-12-11T04:40:49.479Z,10.77
2022-12-11T04:43:18.312Z,10.37
2022-12-11T04:45:46.918Z,10.93
2022-12-11T04:48:15.441Z,10.40
2022-12-11T04:50:46.446Z,10.60
2022-12-11T04:53:15.818Z,10.10
2022-12-11T04:55:44.200Z,9.50
2022-12-11T04:58:12.564Z,10.93
2022-12-11T05:00:44.049Z,11.83
2022-12-11T05:03:12.319Z,10.10
2022-12-11T05:05:40.788Z,11.43
2022-12-11T05:08:12.180Z,9.83
2022-12-11T05:10:47.138Z,11.30
2022-12-11T05:13:21.486Z,11.10
2022-12-11T05:15:50.548Z,9.53
2022-12-11T05:18:18.881Z,9.73
2022-12-11T05:20:56.373Z,9.97
2022-12-11T05:23:27.201Z,9.73
2022-12-11T05:25:56.330Z,9.90
2022-12-11T05:28:26.300Z,10.27
2022-12-11T05:30:58.374Z,10.33
2022-12-11T05:33:26.975Z,9.43
2022-12-11T05:35:57.771Z,9.13
2022-12-11T05:38:28.258Z,9.30
2022-12-11T05:40:59.282Z,10.00
2022-12-11T05:43:30.084Z,8.17
2022-12-11T05:46:10.893Z,10.57
2022-12-11T05:48:41.544Z,9.20
2022-12-11T05:51:11.662Z,10.40
2022-12-11T05:53:44.356Z,10.30
2022-12-11T05:56:14.870Z,9.40
2022-12-11T05:58:47.700Z,10.80
2022-12-11T06:01:19.896Z,10.70
2022-12-11T06:03:49.196Z,5.40
2022-12-11T06:06:21.642Z,11.90
2022-12-11T06:08:53.276Z,10.23
2022-12-11T06:11:24.394Z,9.60
2022-12-11T06:13:54.331Z,10.23
2022-12-11T06:16:23.578Z,9.83
2022-12-11T06:18:55.822Z,9.83
2022-12-11T06:21:28.952Z,8.17
2022-12-11T06:24:01.573Z,9.10
2022-12-11T06:26:33.396Z,8.70
2022-12-11T06:29:05.296Z,8.83
2022-12-11T06:31:38.534Z,5.80
2022-12-11T06:34:06.898Z,8.00
2022-12-11T06:36:36.065Z,3.83
2022-12-11T06:39:06.501Z,5.80
2022-12-11T06:41:36.773Z,7.03
2022-12-11T06:44:07.746Z,10.80
2022-12-11T06:46:38.069Z,8.23
2022-12-11T06:49:06.560Z,7.23
2022-12-11T06:51:35.027Z,8.47
2022-12-11T06:54:06.582Z,7.83
2022-12-11T06:56:36.395Z,6.93
2022-12-11T06:59:07.458Z,7.60
2022-12-11T07:01:36.309Z,7.83
2022-12-11T07:04:06.236Z,7.37
2022-12-11T07:06:35.365Z,6.67
2022-12-11T07:09:07.703Z,7.37
2022-12-11T07:11:36.198Z,6.10
2022-12-11T07:14:04.890Z,7.43
2022-12-11T07:16:35.629Z,8.20
2022-12-11T07:19:04.918Z,8.47
2022-12-11T07:21:34.244Z,7.67
2022-12-11T07:24:02.794Z,7.03
2022-12-11T07:26:33.021Z,8.27
2022-12-11T07:29:01.826Z,6.90
2022-12-11T07:31:31.964Z,6.67
2022-12-11T07:34:03.040Z,5.33
2022-12-11T07:36:32.681Z,2.80
2022-12-11T07:39:01.775Z,4.90
2022-12-11T07:41:31.766Z,5.87
2022-12-11T07:44:04.036Z,3.87
2022-12-11T07:46:35.218Z,4.40
2022-12-11T07:49:06.704Z,7.20
2022-12-11T07:51:37.947Z,6.83
2022-12-11T07:54:08.926Z,5.80
2022-12-11T07:56:37.606Z,5.43
2022-12-11T07:59:08.368Z,6.67
2022-12-11T08:01:38.597Z,6.23
2022-12-11T08:04:10.103Z,7.33
2022-12-11T08:06:42.304Z,7.13
2022-12-11T08:09:17.426Z,7.03
2022-12-11T08:11:50.292Z,6.80
2022-12-11T08:14:21.983Z,6.73
2022-12-11T08:16:51.028Z,6.50
2022-12-11T08:19:19.546Z,7.93
2022-12-11T08:21:47.966Z,5.33
2022-12-11T08:24:21.415Z,7.10
2022-12-11T08:26:50.403Z,7.27
2022-12-11T08:29:21.976Z,7.33
2022-12-11T08:31:50.596Z,8.00
2022-12-11T08:34:19.545Z,7.70
2022-12-11T08:36:48.565Z,7.30
2022-12-11T08:39:17.086Z,6.20
2022-12-11T08:41:45.674Z,6.33
2022-12-11T08:44:16.994Z,6.73
2022-12-11T08:46:49.799Z,4.77
2022-12-11T08:49:18.516Z,6.60
2022-12-11T08:51:47.653Z,6.20
2022-12-11T08:54:18.514Z,8.23
2022-12-11T08:56:47.336Z,5.53
2022-12-11T08:59:15.948Z,8.30
2022-12-11T09:01:44.734Z,6.90
2022-12-11T09:04:16.770Z,6.80
2022-12-11T09:06:45.834Z,4.33
2022-12-11T09:09:16.374Z,6.83
2022-12-11T09:11:45.801Z,8.97
2022-12-11T09:14:16.222Z,8.20
2022-12-11T09:16:45.868Z,8.23
2022-12-11T09:19:20.413Z,8.30
2022-12-11T09:21:52.029Z,7.83
2022-12-11T09:24:21.728Z,8.67
2022-12-11T09:26:55.634Z,6.33
2022-12-11T09:29:25.340Z,5.50
2022-12-11T09:31:55.385Z,8.13
2022-12-11T09:34:29.371Z,8.00
2022-12-11T09:36:59.918Z,8.70
2022-12-11T09:39:29.041Z,7.10
2022-12-11T09:42:08.556Z,8.67
2022-12-11T09:44:47.045Z,6.93
2022-12-11T09:47:35.122Z,7.83
2022-12-11T09:50:19.479Z,7.10
2022-12-11T09:52:58.386Z,8.10
2022-12-11T09:55:31.556Z,8.47
2022-12-11T09:58:08.233Z,7.30
2022-12-11T10:00:43.067Z,9.17
2022-12-11T10:03:43.685Z,8.33
2022-12-11T10:06:22.944Z,8.70
2022-12-11T10:09:02.039Z,7.63
2022-12-11T10:11:57.113Z,9.30
2022-12-11T10:14:38.469Z,7.10
2022-12-11T10:17:16.030Z,7.77
2022-12-11T10:19:46.147Z,7.20
2022-12-11T10:22:22.871Z,9.00
2022-12-11T10:25:13.016Z,7.43
2022-12-11T10:27:45.251Z,7.57
2022-12-11T10:30:18.385Z,2.73
2022-12-11T10:32:56.066Z,9.00
2022-12-11T10:35:35.716Z,8.80
2022-12-11T10:38:17.020Z,7.80
2022-12-11T10:40:51.208Z,4.83
2022-12-11T10:43:21.245Z,5.37
2022-12-11T10:45:56.191Z,8.00
2022-12-11T10:48:27.854Z,7.90
2022-12-11T10:51:02.869Z,6.77
2022-12-11T10:53:36.027Z,7.17
2022-12-11T10:56:05.355Z,7.70
2022-12-11T10:58:39.379Z,7.83
2022-12-11T11:01:11.031Z,9.33
2022-12-11T11:03:55.421Z,8.40
2022-12-11T11:06:26.242Z,8.27
2022-12-11T11:09:00.819Z,6.10
2022-12-11T11:11:33.835Z,7.17
2022-12-11T11:14:18.091Z,8.03
2022-12-11T11:16:50.282Z,7.07
2022-12-11T11:19:26.133Z,6.70
2022-12-11T11:21:58.380Z,8.63
2022-12-11T11:24:37.750Z,8.13
2022-12-11T11:27:15.856Z,7.70
2022-12-11T11:29:48.966Z,7.50
2022-12-11T11:32:27.360Z,7.37
2022-12-11T11:35:16.732Z,8.03
2022-12-11T11:37:48.880Z,7.90
2022-12-11T11:40:26.142Z,7.27
2022-12-11T11:43:08.576Z,7.10
2022-12-11T11:45:47.590Z,7.83
2022-12-11T11:48:32.291Z,7.83
2022-12-11T11:51:07.348Z,8.20
2022-12-11T11:53:41.467Z,8.30
2022-12-11T11:56:23.312Z,8.50
2022-12-11T11:59:02.303Z,8.50
2022-12-11T12:01:31.701Z,7.97
2022-12-11T12:04:04.485Z,7.90
2022-12-11T12:07:13.210Z,7.73
2022-12-11T12:09:53.102Z,8.37
2022-12-11T12:12:35.805Z,9.13
2022-12-11T12:15:18.371Z,8.33
2022-12-11T12:17:55.978Z,7.70
2022-12-11T12:20:40.052Z,9.00
2022-12-11T12:23:34.921Z,8.10
2022-12-11T12:26:13.856Z,8.63
2022-12-11T12:28:54.182Z,8.90
2022-12-11T12:31:39.281Z,7.50
2022-12-11T12:34:20.218Z,8.20
2022-12-11T12:36:57.269Z,7.60
2022-12-11T12:39:34.256Z,7.63
2022-12-11T12:42:13.143Z,7.30
2022-12-11T12:44:56.168Z,7.53
2022-12-11T12:47:25.851Z,7.67
2022-12-11T12:49:55.787Z,9.50
2022-12-11T12:52:35.684Z,8.40
2022-12-11T12:55:19.153Z,7.70
2022-12-11T12:57:53.309Z,7.90
2022-12-11T13:00:37.393Z,7.00
2022-12-11T13:03:15.834Z,7.10
2022-12-11T13:05:50.250Z,9.20
2022-12-11T13:08:30.733Z,8.77
2022-12-11T13:11:03.798Z,8.87
2022-12-11T13:13:36.656Z,8.43
2022-12-11T13:16:27.377Z,8.40
2022-12-11T13:18:58.597Z,8.67
2022-12-11T13:21:33.703Z,8.60
2022-12-11T13:24:18.072Z,8.63
2022-12-11T13:26:50.908Z,8.30
2022-12-11T13:29:36.847Z,6.80
2022-12-11T13:32:24.832Z,8.47
2022-12-11T13:34:57.605Z,9.23
2022-12-11T13:37:35.113Z,7.83
2022-12-11T13:40:10.344Z,8.17
2022-12-11T13:42:50.957Z,6.97
2022-12-11T13:45:24.392Z,6.70
2022-12-11T13:47:56.249Z,8.50
2022-12-11T13:50:30.187Z,8.47
2022-12-11T13:53:00.842Z,6.93
2022-12-11T13:55:31.521Z,8.73
2022-12-11T13:58:00.888Z,5.13
2022-12-11T14:00:33.124Z,5.93
2022-12-11T14:03:07.758Z,7.00
2022-12-11T14:05:37.498Z,5.27
2022-12-11T14:08:10.487Z,8.67
2022-12-11T14:10:41.573Z,7.60
2022-12-11T14:13:22.019Z,7.47
2022-12-11T14:15:51.636Z,8.80
2022-12-11T14:18:25.558Z,7.20
2022-12-11T14:20:58.313Z,8.27
2022-12-11T14:23:30.686Z,7.53
2022-12-11T14:26:00.906Z,8.40
2022-12-11T14:28:37.889Z,6.63
2022-12-11T14:31:15.435Z,8.30
2022-12-11T14:33:49.713Z,8.07
2022-12-11T14:36:18.754Z,7.30
2022-12-11T14:38:51.572Z,7.53
2022-12-11T14:41:29.026Z,7.67
2022-12-11T14:44:01.964Z,5.80
2022-12-11T14:46:42.014Z,7.37
2022-12-11T14:49:24.007Z,6.83
2022-12-11T14:51:55.306Z,5.70
2022-12-11T14:54:31.322Z,7.80
2022-12-11T14:57:06.171Z,8.40
2022-12-11T14:59:47.310Z,7.57
2022-12-11T15:02:31.342Z,6.90
2022-12-11T15:05:16.338Z,8.60
2022-12-11T15:07:55.134Z,8.33
2022-12-11T15:10:27.643Z,8.90
2022-12-11T15:12:56.430Z,8.23
2022-12-11T15:15:25.514Z,8.00
2022-12-11T15:17:54.693Z,8.87
2022-12-11T15:20:28.024Z,8.50
2022-12-11T15:23:01.777Z,8.90
2022-12-11T15:25:32.702Z,8.80
2022-12-11T15:28:02.631Z,10.07
2022-12-11T15:30:35.923Z,8.20
2022-12-11T15:33:22.292Z,9.70
2022-12-11T15:36:24.579Z,7.50
2022-12-11T15:38:54.715Z,7.77
2022-12-11T15:41:24.685Z,8.37
2022-12-11T15:43:58.527Z,9.37
2022-12-11T15:46:27.853Z,9.47
2022-12-11T15:48:58.223Z,9.80
2022-12-11T15:51:42.513Z,9.90
2022-12-11T15:54:11.711Z,10.33
2022-12-11T15:56:41.515Z,8.77
2022-12-11T15:59:13.103Z,9.77
2022-12-11T16:01:42.348Z,10.93
2022-12-11T16:04:14.177Z,9.07
2022-12-11T16:06:46.851Z,9.93
2022-12-11T16:09:15.530Z,9.57
2022-12-11T16:11:49.138Z,9.27
2022-12-11T16:14:17.954Z,9.47
2022-12-11T16:16:47.497Z,9.47
2022-12-11T16:19:16.385Z,9.70
2022-12-11T16:21:46.229Z,8.90
2022-12-11T16:24:16.661Z,8.37
2022-12-11T16:26:45.168Z,7.63
2022-12-11T16:29:13.744Z,9.73
2022-12-11T16:31:43.035Z,8.33
2022-12-11T16:34:12.824Z,9.13
2022-12-11T16:36:41.632Z,9.43
2022-12-11T16:39:12.459Z,9.70
2022-12-11T16:41:42.286Z,9.80
2022-12-11T16:44:12.137Z,10.50
2022-12-11T16:46:41.145Z,8.27
2022-12-11T16:49:09.681Z,8.77
2022-12-11T16:51:38.633Z,9.20
2022-12-11T16:54:07.200Z,9.20
2022-12-11T16:56:38.464Z,10.53
2022-12-11T16:59:07.166Z,9.70
2022-12-11T17:01:36.529Z,9.10
2022-12-11T17:04:07.005Z,9.67
2022-12-11T17:06:36.033Z,11.90
2022-12-11T17:09:06.226Z,9.47
2022-12-11T17:11:38.937Z,9.77
2022-12-11T17:14:09.020Z,10.83
2022-12-11T17:16:38.352Z,10.43
2022-12-11T17:19:09.922Z,10.27
2022-12-11T17:21:38.381Z,10.90
2022-12-11T17:24:08.909Z,9.50
2022-12-11T17:26:39.554Z,11.50
2022-12-11T17:29:08.716Z,8.77
2022-12-11T17:31:37.332Z,10.83
2022-12-11T17:34:06.265Z,10.03
2022-12-11T17:36:36.790Z,10.80
2022-12-11T17:39:05.543Z,10.50
2022-12-11T17:41:35.562Z,9.13
2022-12-11T17:44:06.031Z,10.53
2022-12-11T17:46:35.913Z,11.60
2022-12-11T17:49:06.092Z,10.33
2022-12-11T17:51:36.218Z,10.90
2022-12-11T17:54:05.005Z,10.43
2022-12-11T17:56:36.235Z,12.07
2022-12-11T17:59:07.037Z,9.67
2022-12-11T18:01:35.828Z,10.60
2022-12-11T18:04:06.214Z,11.43
2022-12-11T18:06:36.937Z,11.80
2022-12-11T18:09:05.670Z,10.43
2022-12-11T18:11:35.959Z,11.03
2022-12-11T18:14:04.749Z,10.50
2022-12-11T18:16:38.363Z,11.50
2022-12-11T18:19:09.583Z,10.50
2022-12-11T18:21:43.350Z,10.77
2022-12-11T18:24:12.554Z,9.40
2022-12-11T18:26:42.919Z,10.23
2022-12-11T18:29:11.820Z,11.00
2022-12-11T18:31:43.410Z,11.10
2022-12-11T18:34:12.496Z,11.47
2022-12-11T18:36:42.021Z,10.73
2022-12-11T18:39:11.528Z,10.13
2022-12-11T18:41:39.954Z,9.40
2022-12-11T18:44:10.114Z,8.87
2022-12-11T18:46:39.802Z,9.40
2022-12-11T18:49:12.178Z,9.33
2022-12-11T18:51:42.113Z,9.37
2022-12-11T18:54:11.195Z,8.37
2022-12-11T18:56:41.975Z,10.40
2022-12-11T18:59:13.845Z,9.30
2022-12-11T19:01:42.843Z,9.10
2022-12-11T19:04:12.733Z,8.50
2022-12-11T19:06:41.691Z,9.30
2022-12-11T19:09:10.409Z,8.97
2022-12-11T19:11:44.128Z,8.90
2022-12-11T19:14:14.526Z,9.47
2022-12-11T19:16:46.464Z,9.70
2022-12-11T19:19:19.634Z,9.57
2022-12-11T19:21:51.140Z,9.57
2022-12-11T19:24:22.979Z,9.33
2022-12-11T19:26:53.219Z,9.30
2022-12-11T19:29:23.832Z,9.57
2022-12-11T19:31:53.974Z,9.50
2022-12-11T19:34:27.132Z,10.50
2022-12-11T19:36:56.883Z,8.13
2022-12-11T19:39:25.696Z,8.63
2022-12-11T19:41:55.338Z,10.83
2022-12-11T19:44:24.022Z,10.70
2022-12-11T19:46:54.218Z,8.63
2022-12-11T19:49:28.161Z,8.33
2022-12-11T19:51:58.067Z,8.50
2022-12-11T19:54:29.052Z,9.47
2022-12-11T19:56:57.827Z,9.47
2022-12-11T19:59:26.375Z,7.57
2022-12-11T20:01:55.029Z,8.77
2022-12-11T20:04:29.933Z,7.60
2022-12-11T20:06:58.850Z,9.60
2022-12-11T20:09:27.728Z,9.40
2022-12-11T20:11:56.599Z,9.80
2022-12-11T20:14:27.737Z,8.40
2022-12-11T20:17:13.884Z,9.30
2022-12-11T20:19:44.712Z,9.33
2022-12-11T20:22:13.625Z,9.10
2022-12-11T20:28:27.554Z,9.37
2022-12-11T20:31:04.472Z,10.33
2022-12-11T20:33:33.214Z,10.37
2022-12-11T20:36:07.204Z,9.60
2022-12-11T20:38:36.238Z,9.33
2022-12-11T20:41:07.361Z,9.07
2022-12-11T20:43:36.340Z,8.20
2022-12-11T20:46:08.236Z,9.40
2022-12-11T20:48:37.488Z,10.63
2022-12-11T20:51:11.218Z,10.30
2022-12-11T20:53:41.291Z,15.00
2022-12-11T20:56:11.992Z,10.53
2022-12-11T20:58:42.993Z,10.47
2022-12-11T21:01:15.335Z,9.50
2022-12-11T21:03:44.454Z,9.50
2022-12-11T21:06:21.397Z,9.13
2022-12-11T21:08:50.057Z,9.73
2022-12-11T21:11:20.243Z,8.13
2022-12-11T21:13:52.583Z,8.40
2022-12-11T21:16:21.966Z,7.90
2022-12-11T21:18:50.801Z,8.80
2022-12-11T21:21:21.097Z,9.27
2022-12-11T21:23:49.471Z,8.90
2022-12-11T21:26:18.905Z,8.10
2022-12-11T21:28:48.923Z,8.20
2022-12-11T21:31:20.753Z,7.57
2022-12-11T21:33:49.985Z,7.13
2022-12-11T21:36:23.980Z,7.50
2022-12-11T21:38:53.978Z,8.40
2022-12-11T21:41:25.042Z,7.90
2022-12-11T21:46:44.547Z,7.80
2022-12-11T21:49:13.334Z,8.10
2022-12-11T21:51:47.208Z,7.43
2022-12-11T21:54:21.224Z,9.17
2022-12-11T21:56:51.034Z,6.70
2022-12-11T21:59:20.705Z,6.53
2022-12-11T22:01:49.587Z,7.40
2022-12-11T22:04:19.549Z,8.03
2022-12-11T22:06:51.123Z,11.47
2022-12-11T22:09:20.401Z,10.90
2022-12-11T22:11:51.515Z,8.50
2022-12-11T22:14:23.320Z,9.30
2022-12-11T22:16:54.112Z,7.93
2022-12-11T22:19:23.961Z,6.37
2022-12-11T22:21:55.613Z,8.23
2022-12-11T22:24:26.131Z,7.27
2022-12-11T22:26:55.326Z,7.40
2022-12-11T22:29:23.494Z,6.90
2022-12-11T22:31:52.869Z,6.10
2022-12-11T22:34:21.501Z,7.27
2022-12-11T22:36:51.200Z,6.10
2022-12-11T22:39:20.935Z,7.27
2022-12-11T22:41:53.233Z,7.10
2022-12-11T22:44:23.822Z,7.50
2022-12-11T22:46:52.989Z,6.87
2022-12-11T22:49:24.265Z,8.23
2022-12-11T22:51:53.557Z,7.63
2022-12-11T22:54:24.269Z,7.30
2022-12-11T22:56:52.721Z,6.37
2022-12-11T22:59:21.553Z,7.10
2022-12-11T23:01:50.774Z,8.30
2022-12-11T23:04:22.302Z,7.60
2022-12-11T23:06:50.566Z,8.10
2022-12-11T23:09:19.356Z,7.13
2022-12-11T23:11:49.185Z,7.70
2022-12-11T23:14:20.411Z,7.43
2022-12-11T23:16:48.732Z,7.33
2022-12-11T23:19:22.273Z,7.23
2022-12-11T23:21:55.477Z,6.43
2022-12-11T23:24:27.024Z,6.60
2022-12-11T23:26:57.281Z,6.73
2022-12-11T23:29:27.864Z,7.20
2022-12-11T23:31:56.823Z,8.53
2022-12-11T23:34:25.419Z,6.63
2022-12-11T23:36:53.795Z,6.50
2022-12-11T23:39:21.970Z,7.67
2022-12-11T23:41:51.415Z,7.30
2022-12-11T23:44:21.773Z,6.97
2022-12-11T23:46:50.378Z,6.53
2022-12-11T23:49:20.758Z,7.00
2022-12-11T23:51:49.595Z,6.67
2022-12-11T23:54:18.383Z,7.63
2022-12-11T23:56:46.782Z,7.30
2022-12-11T23:59:15.857Z,7.37
